Wednesday, October 24, 2018, 12:58 AM GMT
Back to Local

CYFC, Fredericton, N. B.

Location: , , Canada Lat: 45.867
Local Time: 12:58 AM GMT ( 0:58 GMT) Lon: -66.533
Time Zone: GMT Elev: 55 ft

Show me the last for .
Show Decoded

2018-10-24 00:00 METAR CYFC 240000Z AUTO 02006KT 9SM OVC065 M00/M00 A3019 RMK SLP226 =
2018-10-23 23:00 METAR CYFC 232300Z AUTO 03005KT 9SM FEW004 SCT009 OVC080 M00/M00 A3020 RMK
                 SLP230 =
2018-10-23 22:25 METAR CYFC 232225Z AUTO 02005KT 9SM FEW004 BKN060 OVC075 00/00 A3021 RMK SLP233
                 =
2018-10-23 22:12 METAR CYFC 232212Z AUTO 02005KT 9SM -SN BKN060 OVC076 00/00 A3021 RMK SLP233 =
2018-10-23 22:08 METAR CYFC 232208Z AUTO 03006KT 9SM -RASN BKN060 OVC075 00/00 A3021 RMK SLP234 =
2018-10-23 22:06 METAR CYFC 232206Z AUTO 02007KT 9SM -RASN -UP BKN055 OVC075 00/00 A3021 RMK
                 SLP234 =
2018-10-23 22:00 METAR CYFC 232200Z AUTO 02005KT 9SM -RA -UP SCT055 OVC075 00/00 A3022 RMK SLP235
                 =
2018-10-23 21:59 METAR CYFC 232159Z AUTO 02005KT 9SM -RA -UP SCT055 OVC074 00/M00 A3022 RMK
                 SLP235 =
2018-10-23 21:43 METAR CYFC 232143Z AUTO 04005KT 9SM -RA FEW050 OVC070 00/M00 A3022 RMK SLP236 =
2018-10-23 21:39 METAR CYFC 232139Z AUTO 03004KT 9SM -RA -UP FEW048 OVC070 00/M00 A3022 RMK
                 SLP236 =
2018-10-23 21:37 METAR CYFC 232137Z AUTO 02005KT 9SM -RASN -UP FEW046 OVC070 00/M00 A3022 RMK
                 SLP236 =
2018-10-23 21:33 METAR CYFC 232133Z AUTO 03005KT 9SM -SN -UP FEW031 SCT046 OVC070 00/00 A3022 RMK
                 SLP235 =
2018-10-23 21:17 METAR CYFC 232117Z AUTO 06006KT 8SM -SN SCT033 OVC043 00/M00 A3021 RMK SLP234 =
2018-10-23 21:11 METAR CYFC 232111Z AUTO 07005KT 9SM -RASN BKN033 OVC043 01/M00 A3021 RMK SLP234
                 =
2018-10-23 21:08 METAR CYFC 232108Z AUTO 07006KT 9SM -RA BKN033 OVC039 01/M00 A3022 RMK SLP235 =
2018-10-23 21:00 METAR CYFC 232100Z AUTO 07006KT 9SM BKN035 OVC050 01/M00 A3022 RMK SLP236 =
2018-10-23 20:16 METAR CYFC 232016Z AUTO 04004KT 9SM SCT039 OVC055 00/M00 A3022 RMK SLP236 =
2018-10-23 20:00 METAR CYFC 232000Z AUTO 05006KT 8SM -SN SCT022 BKN038 OVC055 00/M00 A3022 RMK
                 SLP236 =
2018-10-23 19:55 METAR CYFC 231955Z AUTO 06005KT 6SM -SN SCT022 BKN038 OVC055 00/M00 A3022 RMK
                 SLP236 =
2018-10-23 19:53 METAR CYFC 231953Z AUTO 06006KT 4SM -SN SCT022 OVC055 00/M00 A3022 RMK SLP237 =
2018-10-23 19:48 METAR CYFC 231948Z AUTO 06005KT 3SM -SN BKN022 OVC055 00/M00 A3022 RMK SLP237 =
2018-10-23 19:46 METAR CYFC 231946Z AUTO 05005KT 2 1/4SM -SN BKN022 OVC055 00/M00 A3022 RMK
                 SLP237 =
2018-10-23 19:35 METAR CYFC 231935Z AUTO 07004KT 1 3/4SM -SN BKN022 OVC037 00/M00 A3022 RMK VIS
                 VRB 1-3 SLP238 =
2018-10-23 19:27 METAR CYFC 231927Z AUTO 05004KT 2 1/2SM -SN BKN024 OVC037 00/M00 A3022 RMK VIS
                 VRB 1 3/4-3 SLP238 =
2018-10-23 19:25 METAR CYFC 231925Z AUTO 03004KT 3SM -SN BKN024 OVC037 01/M00 A3022 RMK SLP238 =
2018-10-23 19:18 METAR CYFC 231918Z AUTO 04004KT 5SM -SN SCT028 OVC039 01/M01 A3023 RMK SLP239 =
2018-10-23 19:14 METAR CYFC 231914Z AUTO 03004KT 8SM -SN FEW030 OVC039 01/M01 A3023 RMK SLP239 =
2018-10-23 19:08 METAR CYFC 231908Z AUTO 06004KT 9SM -SN -UP OVC039 01/M01 A3023 RMK SLP240 =
2018-10-23 19:03 METAR CYFC 231903Z AUTO 07004KT 030V100 9SM -UP OVC039 01/M01 A3023 RMK SLP240 =
2018-10-23 19:00 METAR CYFC 231900Z AUTO 08003KT 030V100 9SM -SN -UP OVC041 01/M01 A3023 RMK
                 SLP241 =
2018-10-23 18:57 METAR CYFC 231857Z AUTO VRB02KT 9SM -SN -UP OVC041 01/M01 A3023 RMK SLP241 =
2018-10-23 18:35 METAR CYFC 231835Z AUTO 06004KT 9SM -SN OVC041 00/M01 A3023 RMK SLP240 =
2018-10-23 18:27 METAR CYFC 231827Z AUTO 05004KT 9SM -SN -UP OVC041 00/M01 A3023 RMK SLP241 =
2018-10-23 18:26 METAR CYFC 231826Z AUTO 04003KT 9SM -UP OVC041 00/M01 A3023 RMK SLP241 =
2018-10-23 18:18 METAR CYFC 231818Z AUTO 03005KT 9SM -SN -UP OVC043 00/M01 A3023 RMK SLP240 =
2018-10-23 18:02 METAR CYFC 231802Z AUTO 04006KT 7SM -SN FEW029 OVC045 00/M01 A3023 RMK SLP241 =
2018-10-23 18:00 METAR CYFC 231800Z AUTO 03005KT 330V040 3SM -SN FEW027 OVC047 00/M01 A3023 RMK
                 SLP241 =
2018-10-23 17:59 METAR CYFC 231759Z AUTO 03004KT 330V040 3SM -SN SCT027 OVC047 00/M01 A3023 RMK
                 SLP241 =
2018-10-23 17:46 METAR CYFC 231746Z AUTO VRB02KT 2 1/4SM -SN BKN027 OVC049 00/M01 A3025 RMK VIS
                 VRB 1 1/4-3 SLP245 =
2018-10-23 17:43 METAR CYFC 231743Z AUTO VRB02KT 1 3/4SM -SN BKN027 OVC049 00/M01 A3025 RMK VIS
                 VRB 1-3 SLP245 =
2018-10-23 17:41 METAR CYFC 231741Z AUTO 01002KT 1 3/4SM -SN -UP OVC025 00/M01 A3025 RMK VIS VRB
                 1-3 SLP245 =
2018-10-23 17:26 METAR CYFC 231726Z AUTO 35003KT 290V360 2 1/4SM -SN -UP BKN027 OVC034 01/M01
                 A3025 RMK VIS VRB 1-3 SLP246 =
2018-10-23 17:17 METAR CYFC 231717Z AUTO VRB02KT 2 1/4SM -UP BKN029 BKN034 BKN044 OVC055 01/M02
                 A3025 RMK VIS VRB 3/4-3 SLP246 =
2018-10-23 17:15 METAR CYFC 231715Z AUTO 35003KT 250V030 1 3/4SM -UP BKN031 BKN044 OVC055 01/M02
                 A3025 RMK VIS VRB 5/8-3 SLP246 =
2018-10-23 17:08 METAR CYFC 231708Z AUTO VRB02KT 2 1/4SM -UP BKN033 BKN044 OVC055 01/M02 A3025
                 RMK SLP247 =
2018-10-23 17:03 METAR CYFC 231703Z AUTO VRB02KT 5SM -UP BKN040 OVC055 01/M02 A3025 RMK SLP247 =
2018-10-23 17:00 METAR CYFC 231700Z AUTO VRB02KT 6SM -UP SCT042 OVC055 01/M03 A3025 RMK SLP248 =
2018-10-23 16:39 METAR CYFC 231639Z AUTO VRB02KT 7SM -UP BKN035 BKN045 OVC060 01/M03 A3026 RMK
                 SLP249 =
2018-10-23 16:35 METAR CYFC 231635Z AUTO 18005KT 3SM -UP BKN035 OVC045 01/M03 A3026 RMK SLP249 =
2018-10-23 16:34 METAR CYFC 231634Z AUTO 19004KT 170V240 2 1/2SM -UP OVC035 01/M03 A3026 RMK VIS
                 VRB 1 1/2-3 SLP249 =
2018-10-23 16:27 METAR CYFC 231627Z AUTO VRB06KT 2 1/2SM HZ OVC033 01/M03 A3026 RMK VIS VRB 1
                 1/4-3 SLP249 =
2018-10-23 16:22 METAR CYFC 231622Z AUTO VRB04KT 5SM -RA BKN035 OVC045 02/M04 A3026 RMK SLP249 =
2018-10-23 16:17 METAR CYFC 231617Z AUTO 33003KT 230V350 9SM -RA OVC039 02/M04 A3026 RMK SLP249 =
2018-10-23 16:00 METAR CYFC 231600Z AUTO 31003KT 250V360 9SM FEW040 OVC049 02/M04 A3026 RMK
                 SLP250 =
2018-10-23 15:44 METAR CYFC 231544Z AUTO VRB02KT 9SM FEW043 OVC050 01/M04 A3026 RMK SLP250 =
2018-10-23 15:33 METAR CYFC 231533Z AUTO VRB02KT 9SM -UP FEW035 OVC050 01/M04 A3026 RMK SLP251 =
2018-10-23 15:09 METAR CYFC 231509Z AUTO 19004KT 9SM FEW031 BKN038 OVC050 00/M04 A3027 RMK SLP253
                 =
2018-10-23 15:03 METAR CYFC 231503Z AUTO 19004KT 9SM -RA OVC050 00/M04 A3027 RMK SLP252 =
2018-10-23 15:00 METAR CYFC 231500Z AUTO 19004KT 9SM -RASN OVC050 00/M04 A3027 RMK SLP252 =
2018-10-23 14:59 METAR CYFC 231459Z AUTO 18004KT 9SM -RASN OVC055 00/M04 A3027 RMK SLP252 =
2018-10-23 14:57 METAR CYFC 231457Z AUTO 19003KT 9SM -SN OVC055 00/M04 A3027 RMK SLP252 =
2018-10-23 14:51 METAR CYFC 231451Z AUTO 19004KT 9SM -RASN OVC050 M00/M04 A3027 RMK SLP252 =
2018-10-23 14:48 METAR CYFC 231448Z AUTO 18004KT 9SM -RA BKN050 OVC070 00/M04 A3027 RMK SLP252 =
2018-10-23 14:00 METAR CYFC 231400Z AUTO 17003KT 9SM BKN050 OVC100 M01/M05 A3026 RMK SLP250 =
2018-10-23 13:00 METAR CYFC 231300Z AUTO 21002KT 9SM BKN070 BKN099 M02/M05 A3025 RMK SLP248 =
2018-10-23 12:00 METAR CYFC 231200Z AUTO 20002KT 9SM CLR M04/M06 A3024 RMK SLP243 =
2018-10-23 11:00 METAR CYFC 231100Z AUTO 20003KT 9SM CLR M07/M08 A3022 RMK SLP237 =
2018-10-23 10:00 METAR CYFC 231000Z AUTO 22005KT 9SM CLR M06/M07 A3021 RMK SLP233 =
2018-10-23 09:00 METAR CYFC 230900Z AUTO 20004KT 9SM CLR M06/M07 A3020 RMK SLP230 =
2018-10-23 08:00 METAR CYFC 230800Z AUTO 22005KT 9SM CLR M06/M08 A3019 RMK SLP225 =
2018-10-23 07:00 METAR CYFC 230700Z AUTO 19003KT 9SM CLR M05/M07 A3018 RMK SLP223 =
2018-10-23 06:00 METAR CYFC 230600Z AUTO 20005KT 9SM CLR M05/M07 A3017 RMK SLP221 =
2018-10-23 05:00 METAR CYFC 230500Z AUTO 24003KT 9SM CLR M04/M07 A3016 RMK SLP216 =
2018-10-23 04:00 METAR CYFC 230400Z AUTO 23005KT 9SM CLR M04/M07 A3015 RMK SLP213 =
2018-10-23 03:00 METAR CYFC 230300Z AUTO 23006KT 9SM CLR M02/M07 A3014 RMK SLP210 =
2018-10-23 02:00 METAR CYFC 230200Z AUTO 23006KT 9SM CLR M02/M07 A3013 RMK SLP207 =
2018-10-23 01:00 METAR CYFC 230100Z AUTO 24006KT 9SM CLR M02/M07 A3012 RMK SLP202 =

Support USWX by starting your Amazon purchase here.